sensor_id;sensor_type;location;lat;lon;timestamp;pressure;altitude;pressure_sealevel;temperature;humidity
1726;BME280;41776;48.260;8.928;2023-05-21T00:01:36;52384.97;;;-145.69;100.00
1726;BME280;41776;48.260;8.928;2023-05-21T00:04:03;52384.97;;;-145.69;100.00
1726;BME280;41776;48.260;8.928;2023-05-21T00:06:32;52383.00;;;-145.69;100.00
1726;BME280;41776;48.260;8.928;2023-05-21T00:09:00;52377.06;;;-145.69;100.00
1726;BME280;41776;48.260;8.928;2023-05-21T00:11:26;52396.84;;;-145.69;100.00
1726;BME280;41776;48.260;8.928;2023-05-21T00:13:54;52396.84;;;-145.69;100.00
1726;BME280;41776;48.260;8.928;2023-05-21T00:16:21;52400.81;;;-145.69;100.00
1726;BME280;41776;48.260;8.928;2023-05-21T00:18:48;52381.00;;;-145.69;100.00
1726;BME280;41776;48.260;8.928;2023-05-21T00:21:15;52394.88;;;-145.69;100.00
1726;BME280;41776;48.260;8.928;2023-05-21T00:23:42;52396.84;;;-145.69;100.00
1726;BME280;41776;48.260;8.928;2023-05-21T00:26:09;52400.81;;;-145.69;100.00
1726;BME280;41776;48.260;8.928;2023-05-21T00:28:36;52386.97;;;-145.69;100.00
1726;BME280;41776;48.260;8.928;2023-05-21T00:31:04;52392.91;;;-145.69;100.00
1726;BME280;41776;48.260;8.928;2023-05-21T00:33:30;52381.00;;;-145.69;100.00
1726;BME280;41776;48.260;8.928;2023-05-21T00:36:00;52400.81;;;-145.69;100.00
1726;BME280;41776;48.260;8.928;2023-05-21T00:38:27;52452.31;;;-145.69;100.00
1726;BME280;41776;48.260;8.928;2023-05-21T00:40:53;52369.13;;;-145.69;100.00
1726;BME280;41776;48.260;8.928;2023-05-21T00:43:20;52402.78;;;-145.69;100.00
1726;BME280;41776;48.260;8.928;2023-05-21T00:45:50;52388.94;;;-145.69;100.00
1726;BME280;41776;48.260;8.928;2023-05-21T00:48:19;52390.91;;;-145.69;100.00
1726;BME280;41776;48.260;8.928;2023-05-21T00:50:46;52388.94;;;-145.69;100.00
1726;BME280;41776;48.260;8.928;2023-05-21T00:53:13;52383.00;;;-145.69;100.00
1726;BME280;41776;48.260;8.928;2023-05-21T00:55:43;52402.78;;;-145.69;100.00
1726;BME280;41776;48.260;8.928;2023-05-21T00:58:10;52392.91;;;-145.69;100.00
1726;BME280;41776;48.260;8.928;2023-05-21T01:00:36;52400.81;;;-145.69;100.00
1726;BME280;41776;48.260;8.928;2023-05-21T01:03:04;52398.84;;;-145.69;100.00
1726;BME280;41776;48.260;8.928;2023-05-21T01:05:32;52383.00;;;-145.69;100.00
1726;BME280;41776;48.260;8.928;2023-05-21T01:07:59;52365.16;;;-145.69;100.00
1726;BME280;41776;48.260;8.928;2023-05-21T01:10:26;52434.47;;;-145.69;100.00
1726;BME280;41776;48.260;8.928;2023-05-21T01:12:54;52396.84;;;-145.69;100.00
1726;BME280;41776;48.260;8.928;2023-05-21T01:15:22;52384.97;;;-145.69;100.00
1726;BME280;41776;48.260;8.928;2023-05-21T01:17:50;52416.66;;;-145.69;100.00
1726;BME280;41776;48.260;8.928;2023-05-21T01:20:18;52418.63;;;-145.69;100.00
1726;BME280;41776;48.260;8.928;2023-05-21T01:22:53;52394.88;;;-145.69;100.00
1726;BME280;41776;48.260;8.928;2023-05-21T01:25:20;52384.97;;;-145.69;100.00
1726;BME280;41776;48.260;8.928;2023-05-21T01:27:47;52416.66;;;-145.69;100.00
1726;BME280;41776;48.260;8.928;2023-05-21T01:30:14;52420.63;;;-145.69;100.00
1726;BME280;41776;48.260;8.928;2023-05-21T01:32:47;52396.84;;;-145.69;100.00
1726;BME280;41776;48.260;8.928;2023-05-21T01:35:19;52386.97;;;-145.69;100.00
1726;BME280;41776;48.260;8.928;2023-05-21T01:37:51;52400.81;;;-145.69;100.00
1726;BME280;41776;48.260;8.928;2023-05-21T01:40:23;52386.97;;;-145.69;100.00
1726;BME280;41776;48.260;8.928;2023-05-21T01:42:51;52408.75;;;-145.69;100.00
1726;BME280;41776;48.260;8.928;2023-05-21T01:45:18;52416.66;;;-145.69;100.00
1726;BME280;41776;48.260;8.928;2023-05-21T01:47:49;52383.00;;;-145.69;100.00
1726;BME280;41776;48.260;8.928;2023-05-21T01:50:17;52416.66;;;-145.69;100.00
1726;BME280;41776;48.260;8.928;2023-05-21T01:52:48;52416.66;;;-145.69;100.00
1726;BME280;41776;48.260;8.928;2023-05-21T01:55:17;52398.84;;;-145.69;100.00
1726;BME280;41776;48.260;8.928;2023-05-21T01:57:50;52394.88;;;-145.69;100.00
1726;BME280;41776;48.260;8.928;2023-05-21T02:00:23;52400.81;;;-145.69;100.00
1726;BME280;41776;48.260;8.928;2023-05-21T02:02:52;52430.53;;;-145.69;100.00
1726;BME280;41776;48.260;8.928;2023-05-21T02:05:22;52408.75;;;-145.69;100.00
1726;BME280;41776;48.260;8.928;2023-05-21T02:07:50;52414.69;;;-145.69;100.00
1726;BME280;41776;48.260;8.928;2023-05-21T02:10:17;52444.38;;;-145.69;100.00
1726;BME280;41776;48.260;8.928;2023-05-21T02:12:52;52400.81;;;-145.69;100.00
1726;BME280;41776;48.260;8.928;2023-05-21T02:15:18;52458.25;;;-145.69;100.00
1726;BME280;41776;48.260;8.928;2023-05-21T02:17:45;52394.88;;;-145.69;100.00
1726;BME280;41776;48.260;8.928;2023-05-21T02:20:12;52412.69;;;-145.69;100.00
1726;BME280;41776;48.260;8.928;2023-05-21T02:22:39;52408.75;;;-145.69;100.00
1726;BME280;41776;48.260;8.928;2023-05-21T02:25:07;52410.72;;;-145.69;100.00
1726;BME280;41776;48.260;8.928;2023-05-21T02:27:34;52430.53;;;-145.69;100.00
1726;BME280;41776;48.260;8.928;2023-05-21T02:30:04;52402.78;;;-145.69;100.00
1726;BME280;41776;48.260;8.928;2023-05-21T02:32:31;52430.53;;;-145.69;100.00
1726;BME280;41776;48.260;8.928;2023-05-21T02:34:58;52432.50;;;-145.69;100.00
1726;BME280;41776;48.260;8.928;2023-05-21T02:37:25;52418.63;;;-145.69;100.00
1726;BME280;41776;48.260;8.928;2023-05-21T02:39:52;52418.63;;;-145.69;100.00
1726;BME280;41776;48.260;8.928;2023-05-21T02:42:20;52404.78;;;-145.69;100.00
1726;BME280;41776;48.260;8.928;2023-05-21T02:44:47;52404.78;;;-145.69;100.00
1726;BME280;41776;48.260;8.928;2023-05-21T02:47:15;52428.53;;;-145.69;100.00
1726;BME280;41776;48.260;8.928;2023-05-21T02:49:42;52418.63;;;-145.69;100.00
1726;BME280;41776;48.260;8.928;2023-05-21T02:52:09;52414.69;;;-145.69;100.00
1726;BME280;41776;48.260;8.928;2023-05-21T02:54:35;52460.22;;;-145.69;100.00
1726;BME280;41776;48.260;8.928;2023-05-21T02:57:02;52432.50;;;-145.69;100.00
1726;BME280;41776;48.260;8.928;2023-05-21T02:59:29;52365.16;;;-145.69;100.00
1726;BME280;41776;48.260;8.928;2023-05-21T03:01:55;52434.47;;;-145.69;100.00
1726;BME280;41776;48.260;8.928;2023-05-21T03:04:23;52424.59;;;-145.69;100.00
1726;BME280;41776;48.260;8.928;2023-05-21T03:06:52;52420.63;;;-145.69;100.00
1726;BME280;41776;48.260;8.928;2023-05-21T03:09:19;52430.53;;;-145.69;100.00
1726;BME280;41776;48.260;8.928;2023-05-21T03:11:46;52426.56;;;-145.69;100.00
1726;BME280;41776;48.260;8.928;2023-05-21T03:14:13;52400.81;;;-145.69;100.00
1726;BME280;41776;48.260;8.928;2023-05-21T03:16:40;52438.44;;;-145.69;100.00
1726;BME280;41776;48.260;8.928;2023-05-21T03:19:11;52472.13;;;-145.69;100.00
1726;BME280;41776;48.260;8.928;2023-05-21T03:21:39;52416.66;;;-145.69;100.00
1726;BME280;41776;48.260;8.928;2023-05-21T03:24:06;52460.22;;;-145.69;100.00
1726;BME280;41776;48.260;8.928;2023-05-21T03:26:33;52420.63;;;-145.69;100.00
1726;BME280;41776;48.260;8.928;2023-05-21T03:29:00;52434.47;;;-145.69;100.00
1726;BME280;41776;48.260;8.928;2023-05-21T03:31:26;52448.34;;;-145.69;100.00
1726;BME280;41776;48.260;8.928;2023-05-21T03:33:53;52420.63;;;-145.69;100.00
1726;BME280;41776;48.260;8.928;2023-05-21T03:36:20;52424.59;;;-145.69;100.00
1726;BME280;41776;48.260;8.928;2023-05-21T03:38:47;52456.28;;;-145.69;100.00
1726;BME280;41776;48.260;8.928;2023-05-21T03:41:14;52416.66;;;-145.69;100.00
1726;BME280;41776;48.260;8.928;2023-05-21T03:43:41;52458.25;;;-145.69;100.00
1726;BME280;41776;48.260;8.928;2023-05-21T03:46:07;52418.63;;;-145.69;100.00
1726;BME280;41776;48.260;8.928;2023-05-21T03:48:34;52430.53;;;-145.69;100.00
1726;BME280;41776;48.260;8.928;2023-05-21T03:51:00;52416.66;;;-145.69;100.00
1726;BME280;41776;48.260;8.928;2023-05-21T03:53:26;52404.78;;;-145.69;100.00
1726;BME280;41776;48.260;8.928;2023-05-21T03:55:54;52420.63;;;-145.69;100.00
1726;BME280;41776;48.260;8.928;2023-05-21T03:58:21;52436.47;;;-145.69;100.00
1726;BME280;41776;48.260;8.928;2023-05-21T04:00:47;52430.53;;;-145.69;100.00
1726;BME280;41776;48.260;8.928;2023-05-21T04:03:14;52446.38;;;-145.69;100.00
1726;BME280;41776;48.260;8.928;2023-05-21T04:05:42;52446.38;;;-145.69;100.00
1726;BME280;41776;48.260;8.928;2023-05-21T04:08:09;52446.38;;;-145.69;100.00
1726;BME280;41776;48.260;8.928;2023-05-21T04:10:35;52428.53;;;-145.69;100.00
1726;BME280;41776;48.260;8.928;2023-05-21T04:13:03;52466.16;;;-145.69;100.00
1726;BME280;41776;48.260;8.928;2023-05-21T04:15:30;52456.28;;;-145.69;100.00
1726;BME280;41776;48.260;8.928;2023-05-21T04:17:59;52432.50;;;-145.69;100.00
1726;BME280;41776;48.260;8.928;2023-05-21T04:20:26;52426.56;;;-145.69;100.00
1726;BME280;41776;48.260;8.928;2023-05-21T04:22:52;52452.31;;;-145.69;100.00
1726;BME280;41776;48.260;8.928;2023-05-21T04:25:19;52440.44;;;-145.69;100.00
1726;BME280;41776;48.260;8.928;2023-05-21T04:27:46;52442.41;;;-145.69;100.00
1726;BME280;41776;48.260;8.928;2023-05-21T04:30:14;52424.59;;;-145.69;100.00
1726;BME280;41776;48.260;8.928;2023-05-21T04:32:40;52424.59;;;-145.69;100.00
1726;BME280;41776;48.260;8.928;2023-05-21T04:35:10;52448.34;;;-145.69;100.00
1726;BME280;41776;48.260;8.928;2023-05-21T04:37:36;52476.06;;;-145.69;100.00
1726;BME280;41776;48.260;8.928;2023-05-21T04:40:07;52428.53;;;-145.69;100.00
1726;BME280;41776;48.260;8.928;2023-05-21T04:42:34;52412.69;;;-145.69;100.00
1726;BME280;41776;48.260;8.928;2023-05-21T04:45:01;52410.72;;;-145.69;100.00
1726;BME280;41776;48.260;8.928;2023-05-21T04:47:31;52414.69;;;-145.69;100.00
1726;BME280;41776;48.260;8.928;2023-05-21T04:49:59;52408.75;;;-145.69;100.00
1726;BME280;41776;48.260;8.928;2023-05-21T04:52:26;52422.59;;;-145.69;100.00
1726;BME280;41776;48.260;8.928;2023-05-21T04:54:53;52412.69;;;-145.69;100.00
1726;BME280;41776;48.260;8.928;2023-05-21T04:57:20;52452.31;;;-145.69;100.00
1726;BME280;41776;48.260;8.928;2023-05-21T04:59:48;52428.53;;;-145.69;100.00
1726;BME280;41776;48.260;8.928;2023-05-21T05:02:15;52410.72;;;-145.69;100.00
1726;BME280;41776;48.260;8.928;2023-05-21T05:04:43;52398.84;;;-145.69;100.00
1726;BME280;41776;48.260;8.928;2023-05-21T05:07:09;52406.75;;;-145.69;100.00
1726;BME280;41776;48.260;8.928;2023-05-21T05:09:36;52404.78;;;-145.69;100.00
1726;BME280;41776;48.260;8.928;2023-05-21T05:12:03;52388.94;;;-145.69;100.00
1726;BME280;41776;48.260;8.928;2023-05-21T05:14:30;52396.84;;;-145.69;100.00
1726;BME280;41776;48.260;8.928;2023-05-21T05:16:56;52388.94;;;-145.69;100.00
1726;BME280;41776;48.260;8.928;2023-05-21T05:19:24;52381.00;;;-145.69;100.00
1726;BME280;41776;48.260;8.928;2023-05-21T05:21:55;52388.94;;;-145.69;100.00
1726;BME280;41776;48.260;8.928;2023-05-21T05:24:22;52400.81;;;-145.69;100.00
1726;BME280;41776;48.260;8.928;2023-05-21T05:26:48;52369.13;;;-145.69;100.00
1726;BME280;41776;48.260;8.928;2023-05-21T05:29:15;52371.13;;;-145.69;100.00
1726;BME280;41776;48.260;8.928;2023-05-21T05:31:41;52398.84;;;-145.69;100.00
1726;BME280;41776;48.260;8.928;2023-05-21T05:34:08;52396.84;;;-145.69;100.00
1726;BME280;41776;48.260;8.928;2023-05-21T05:36:34;52381.00;;;-145.69;100.00
1726;BME280;41776;48.260;8.928;2023-05-21T05:39:02;52406.75;;;-145.69;100.00
1726;BME280;41776;48.260;8.928;2023-05-21T05:41:29;52373.09;;;-145.69;100.00
1726;BME280;41776;48.260;8.928;2023-05-21T05:43:55;52394.88;;;-145.69;100.00
1726;BME280;41776;48.260;8.928;2023-05-21T05:46:22;52349.31;;;-145.69;100.00
1726;BME280;41776;48.260;8.928;2023-05-21T05:48:49;52353.28;;;-145.69;100.00
1726;BME280;41776;48.260;8.928;2023-05-21T05:51:15;52373.09;;;-145.69;100.00
1726;BME280;41776;48.260;8.928;2023-05-21T05:53:42;52331.50;;;-145.69;100.00
1726;BME280;41776;48.260;8.928;2023-05-21T05:56:10;52349.31;;;-145.69;100.00
1726;BME280;41776;48.260;8.928;2023-05-21T05:58:36;52351.31;;;-145.69;100.00
1726;BME280;41776;48.260;8.928;2023-05-21T06:01:03;52365.16;;;-145.69;100.00
1726;BME280;41776;48.260;8.928;2023-05-21T06:03:29;52341.41;;;-145.69;100.00
1726;BME280;41776;48.260;8.928;2023-05-21T06:05:56;52377.06;;;-145.69;100.00
1726;BME280;41776;48.260;8.928;2023-05-21T06:08:22;52365.16;;;-145.69;100.00
1726;BME280;41776;48.260;8.928;2023-05-21T06:10:49;52373.09;;;-145.69;100.00
1726;BME280;41776;48.260;8.928;2023-05-21T06:13:17;52357.25;;;-145.69;100.00
1726;BME280;41776;48.260;8.928;2023-05-21T06:15:43;52337.44;;;-145.69;100.00
1726;BME280;41776;48.260;8.928;2023-05-21T06:18:10;52349.31;;;-145.69;100.00
1726;BME280;41776;48.260;8.928;2023-05-21T06:20:36;52384.97;;;-145.69;100.00
1726;BME280;41776;48.260;8.928;2023-05-21T06:23:06;52377.06;;;-145.69;100.00
1726;BME280;41776;48.260;8.928;2023-05-21T06:25:33;52345.38;;;-145.69;100.00
1726;BME280;41776;48.260;8.928;2023-05-21T06:27:59;52301.81;;;-145.69;100.00
1726;BME280;41776;48.260;8.928;2023-05-21T06:30:27;52355.28;;;-145.69;100.00
1726;BME280;41776;48.260;8.928;2023-05-21T06:32:53;52343.38;;;-145.69;100.00
1726;BME280;41776;48.260;8.928;2023-05-21T06:35:21;52309.72;;;-145.69;100.00
1726;BME280;41776;48.260;8.928;2023-05-21T06:37:48;52319.63;;;-145.69;100.00
1726;BME280;41776;48.260;8.928;2023-05-21T06:40:14;52345.38;;;-145.69;100.00
1726;BME280;41776;48.260;8.928;2023-05-21T06:42:41;52319.63;;;-145.69;100.00
1726;BME280;41776;48.260;8.928;2023-05-21T06:45:08;52345.38;;;-145.69;100.00
1726;BME280;41776;48.260;8.928;2023-05-21T06:47:36;52325.56;;;-145.69;100.00
1726;BME280;41776;48.260;8.928;2023-05-21T06:50:03;52309.72;;;-145.69;100.00
1726;BME280;41776;48.260;8.928;2023-05-21T06:52:30;52291.91;;;-145.69;100.00
1726;BME280;41776;48.260;8.928;2023-05-21T06:54:56;52295.84;;;-145.69;100.00
1726;BME280;41776;48.260;8.928;2023-05-21T06:57:23;52303.78;;;-145.69;100.00
1726;BME280;41776;48.260;8.928;2023-05-21T06:59:49;52270.13;;;-145.69;100.00
1726;BME280;41776;48.260;8.928;2023-05-21T07:02:16;52299.81;;;-145.69;100.00
1726;BME280;41776;48.260;8.928;2023-05-21T07:04:44;52297.84;;;-145.69;100.00
1726;BME280;41776;48.260;8.928;2023-05-21T07:07:11;52264.16;;;-145.69;100.00
1726;BME280;41776;48.260;8.928;2023-05-21T07:09:37;52289.91;;;-145.69;100.00
1726;BME280;41776;48.260;8.928;2023-05-21T07:12:04;52272.09;;;-145.69;100.00
1726;BME280;41776;48.260;8.928;2023-05-21T07:14:31;52289.91;;;-145.69;100.00
1726;BME280;41776;48.260;8.928;2023-05-21T07:16:57;52238.44;;;-145.69;100.00
1726;BME280;41776;48.260;8.928;2023-05-21T07:19:24;52266.16;;;-145.69;100.00
1726;BME280;41776;48.260;8.928;2023-05-21T07:21:51;52270.13;;;-145.69;100.00
1726;BME280;41776;48.260;8.928;2023-05-21T07:24:18;52258.22;;;-145.69;100.00
1726;BME280;41776;48.260;8.928;2023-05-21T07:26:45;52234.47;;;-145.69;100.00
1726;BME280;41776;48.260;8.928;2023-05-21T07:29:11;52230.50;;;-145.69;95.83
1726;BME280;41776;48.260;8.928;2023-05-21T07:31:38;52260.22;;;-145.69;94.71
1726;BME280;41776;48.260;8.928;2023-05-21T07:34:05;52256.25;;;-145.69;98.00
1726;BME280;41776;48.260;8.928;2023-05-21T07:36:31;52246.34;;;-145.69;100.00
1726;BME280;41776;48.260;8.928;2023-05-21T07:39:00;52256.25;;;-145.69;96.27
1726;BME280;41776;48.260;8.928;2023-05-21T07:41:26;52254.28;;;-145.69;96.98
1726;BME280;41776;48.260;8.928;2023-05-21T07:43:53;52228.53;;;-145.69;100.00
1726;BME280;41776;48.260;8.928;2023-05-21T07:46:20;52246.34;;;-145.69;100.00
1726;BME280;41776;48.260;8.928;2023-05-21T07:48:46;52258.22;;;-145.69;100.00
1726;BME280;41776;48.260;8.928;2023-05-21T07:51:14;52236.44;;;-145.69;100.00
1726;BME280;41776;48.260;8.928;2023-05-21T07:53:40;52234.47;;;-145.69;98.60
1726;BME280;41776;48.260;8.928;2023-05-21T07:56:08;52228.53;;;-145.69;95.40
1726;BME280;41776;48.260;8.928;2023-05-21T07:58:35;52240.41;;;-145.69;96.12
1726;BME280;41776;48.260;8.928;2023-05-21T08:01:01;52248.34;;;-145.69;98.63
1726;BME280;41776;48.260;8.928;2023-05-21T08:03:28;52230.50;;;-145.69;100.00
1726;BME280;41776;48.260;8.928;2023-05-21T08:05:55;52210.72;;;-145.69;99.03
1726;BME280;41776;48.260;8.928;2023-05-21T08:08:22;52204.75;;;-145.69;96.90
1726;BME280;41776;48.260;8.928;2023-05-21T08:10:48;52216.66;;;-145.69;97.89
1726;BME280;41776;48.260;8.928;2023-05-21T08:13:16;52190.91;;;-145.69;100.00
1726;BME280;41776;48.260;8.928;2023-05-21T08:15:43;52222.59;;;-145.69;98.98
1726;BME280;41776;48.260;8.928;2023-05-21T08:18:09;52230.50;;;-145.69;99.29
1726;BME280;41776;48.260;8.928;2023-05-21T08:20:36;52218.63;;;-145.69;96.97
1726;BME280;41776;48.260;8.928;2023-05-21T08:23:03;52216.66;;;-145.69;96.60
1726;BME280;41776;48.260;8.928;2023-05-21T08:25:30;52208.72;;;-145.69;98.15
1726;BME280;41776;48.260;8.928;2023-05-21T08:27:56;52216.66;;;-145.69;96.25
1726;BME280;41776;48.260;8.928;2023-05-21T08:30:25;52230.50;;;-145.69;99.71
1726;BME280;41776;48.260;8.928;2023-05-21T08:32:51;52238.44;;;-145.69;99.71
1726;BME280;41776;48.260;8.928;2023-05-21T08:35:19;52234.47;;;-145.69;100.00
1726;BME280;41776;48.260;8.928;2023-05-21T08:37:45;52214.66;;;-145.69;100.00
1726;BME280;41776;48.260;8.928;2023-05-21T08:40:12;52222.59;;;-145.69;100.00
1726;BME280;41776;48.260;8.928;2023-05-21T08:42:41;52200.81;;;-145.69;98.33
1726;BME280;41776;48.260;8.928;2023-05-21T08:45:12;52222.59;;;-145.69;96.89
1726;BME280;41776;48.260;8.928;2023-05-21T08:47:41;52246.34;;;-145.69;100.00
1726;BME280;41776;48.260;8.928;2023-05-21T08:50:10;52238.44;;;-145.69;99.34
1726;BME280;41776;48.260;8.928;2023-05-21T08:52:37;52230.50;;;-145.69;99.85
1726;BME280;41776;48.260;8.928;2023-05-21T08:55:04;52194.88;;;-145.69;98.26
1726;BME280;41776;48.260;8.928;2023-05-21T08:57:31;52226.53;;;-145.69;96.55
1726;BME280;41776;48.260;8.928;2023-05-21T08:59:58;52194.88;;;-145.69;97.58
1726;BME280;41776;48.260;8.928;2023-05-21T09:02:26;52204.75;;;-145.69;97.22
1726;BME280;41776;48.260;8.928;2023-05-21T09:04:56;52222.59;;;-145.69;99.93
1726;BME280;41776;48.260;8.928;2023-05-21T09:07:24;52224.56;;;-145.69;100.00
1726;BME280;41776;48.260;8.928;2023-05-21T09:09:54;52218.63;;;-145.69;96.11
1726;BME280;41776;48.260;8.928;2023-05-21T09:12:22;52204.75;;;-145.69;97.29
1726;BME280;41776;48.260;8.928;2023-05-21T09:14:50;52230.50;;;-145.69;99.39
1726;BME280;41776;48.260;8.928;2023-05-21T09:17:16;52226.53;;;-145.69;100.00
1726;BME280;41776;48.260;8.928;2023-05-21T09:20:05;52206.75;;;-145.69;97.93
1726;BME280;41776;48.260;8.928;2023-05-21T09:22:33;52196.84;;;-145.69;96.34
1726;BME280;41776;48.260;8.928;2023-05-21T09:25:03;52210.72;;;-145.69;100.00
1726;BME280;41776;48.260;8.928;2023-05-21T09:27:31;52184.97;;;-145.69;96.96
1726;BME280;41776;48.260;8.928;2023-05-21T09:29:57;52230.50;;;-145.69;97.21
1726;BME280;41776;48.260;8.928;2023-05-21T09:32:24;52224.56;;;-145.69;99.98
1726;BME280;41776;48.260;8.928;2023-05-21T09:34:50;52206.75;;;-145.69;100.00
1726;BME280;41776;48.260;8.928;2023-05-21T09:37:18;52230.50;;;-145.69;100.00
1726;BME280;41776;48.260;8.928;2023-05-21T09:39:46;52181.00;;;-145.69;100.00
1726;BME280;41776;48.260;8.928;2023-05-21T09:42:13;52198.81;;;-145.69;100.00
1726;BME280;41776;48.260;8.928;2023-05-21T09:44:41;52190.91;;;-145.69;97.58
1726;BME280;41776;48.260;8.928;2023-05-21T09:47:08;52190.91;;;-145.69;100.00
1726;BME280;41776;48.260;8.928;2023-05-21T09:49:36;52200.81;;;-145.69;99.53
1726;BME280;41776;48.260;8.928;2023-05-21T09:52:03;52206.75;;;-145.69;98.86
1726;BME280;41776;48.260;8.928;2023-05-21T09:54:32;52226.53;;;-145.69;98.50
1726;BME280;41776;48.260;8.928;2023-05-21T09:56:59;52226.53;;;-145.69;98.91
1726;BME280;41776;48.260;8.928;2023-05-21T09:59:34;52194.88;;;-145.69;99.15
1726;BME280;41776;48.260;8.928;2023-05-21T10:02:01;52198.81;;;-145.69;97.44
1726;BME280;41776;48.260;8.928;2023-05-21T10:04:28;52218.63;;;-145.69;99.85
1726;BME280;41776;48.260;8.928;2023-05-21T10:06:57;52190.91;;;-145.69;100.00
1726;BME280;41776;48.260;8.928;2023-05-21T10:09:26;52206.75;;;-145.69;96.33
1726;BME280;41776;48.260;8.928;2023-05-21T10:11:56;52177.03;;;-145.69;97.38
1726;BME280;41776;48.260;8.928;2023-05-21T10:14:24;52186.94;;;-145.69;96.82
1726;BME280;41776;48.260;8.928;2023-05-21T10:16:53;52192.88;;;-145.69;90.94
1726;BME280;41776;48.260;8.928;2023-05-21T10:19:21;52173.09;;;-145.69;91.56
1726;BME280;41776;48.260;8.928;2023-05-21T10:21:48;52163.19;;;-145.69;87.06
1726;BME280;41776;48.260;8.928;2023-05-21T10:24:15;52173.09;;;-145.69;89.96
1726;BME280;41776;48.260;8.928;2023-05-21T10:26:43;52196.84;;;-145.69;83.84
1726;BME280;41776;48.260;8.928;2023-05-21T10:29:13;52188.91;;;-145.69;87.09
1726;BME280;41776;48.260;8.928;2023-05-21T10:31:42;52167.13;;;-145.69;86.62
1726;BME280;41776;48.260;8.928;2023-05-21T10:34:13;52202.78;;;-145.69;88.07
1726;BME280;41776;48.260;8.928;2023-05-21T10:36:40;52228.53;;;-145.69;87.22
1726;BME280;41776;48.260;8.928;2023-05-21T10:39:10;52179.03;;;-145.69;85.41
1726;BME280;41776;48.260;8.928;2023-05-21T10:41:44;52171.09;;;-145.69;85.58
1726;BME280;41776;48.260;8.928;2023-05-21T10:44:19;52143.38;;;-145.69;82.52
1726;BME280;41776;48.260;8.928;2023-05-21T10:50:12;52139.41;;;-145.69;78.32
1726;BME280;41776;48.260;8.928;2023-05-21T10:52:54;52139.41;;;-145.69;72.54
1726;BME280;41776;48.260;8.928;2023-05-21T10:55:35;52137.44;;;-145.69;75.52
1726;BME280;41776;48.260;8.928;2023-05-21T10:58:31;52161.19;;;-145.69;78.30
1726;BME280;41776;48.260;8.928;2023-05-21T11:01:03;52159.22;;;-145.69;79.84
1726;BME280;41776;48.260;8.928;2023-05-21T11:03:31;52159.22;;;-145.69;81.72
1726;BME280;41776;48.260;8.928;2023-05-21T11:06:01;52165.16;;;-145.69;79.89
1726;BME280;41776;48.260;8.928;2023-05-21T11:08:29;52171.09;;;-145.69;81.89
1726;BME280;41776;48.260;8.928;2023-05-21T11:10:56;52143.38;;;-145.69;80.93
1726;BME280;41776;48.260;8.928;2023-05-21T11:13:24;52157.25;;;-145.69;78.76
1726;BME280;41776;48.260;8.928;2023-05-21T11:16:07;52151.28;;;-145.69;77.55
1726;BME280;41776;48.260;8.928;2023-05-21T11:18:57;52147.34;;;-145.69;74.60
1726;BME280;41776;48.260;8.928;2023-05-21T11:21:28;52141.41;;;-145.69;71.80
1726;BME280;41776;48.260;8.928;2023-05-21T11:23:59;52117.63;;;-145.69;69.37
1726;BME280;41776;48.260;8.928;2023-05-21T11:26:28;52111.69;;;-145.69;70.63
1726;BME280;41776;48.260;8.928;2023-05-21T11:29:07;52123.56;;;-145.69;79.07
1726;BME280;41776;48.260;8.928;2023-05-21T11:31:35;52149.31;;;-145.69;71.70
1726;BME280;41776;48.260;8.928;2023-05-21T11:34:11;52129.50;;;-145.69;67.15
1726;BME280;41776;48.260;8.928;2023-05-21T11:36:38;52123.56;;;-145.69;59.89
1726;BME280;41776;48.260;8.928;2023-05-21T11:39:08;52137.44;;;-145.69;64.00
1726;BME280;41776;48.260;8.928;2023-05-21T11:41:51;52111.69;;;-145.69;66.23
1726;BME280;41776;48.260;8.928;2023-05-21T11:44:20;52072.09;;;-145.69;62.53
1726;BME280;41776;48.260;8.928;2023-05-21T11:46:50;52107.72;;;-145.69;61.63
1726;BME280;41776;48.260;8.928;2023-05-21T11:49:17;52097.84;;;-145.69;61.85
1726;BME280;41776;48.260;8.928;2023-05-21T11:51:44;52082.00;;;-145.69;58.72
1726;BME280;41776;48.260;8.928;2023-05-21T11:54:13;52115.66;;;-145.69;59.82
1726;BME280;41776;48.260;8.928;2023-05-21T11:56:42;52074.06;;;-145.69;60.33
1726;BME280;41776;48.260;8.928;2023-05-21T11:59:13;52095.84;;;-145.69;56.47
1726;BME280;41776;48.260;8.928;2023-05-21T12:01:41;52087.94;;;-145.69;60.22
1726;BME280;41776;48.260;8.928;2023-05-21T12:04:12;52083.97;;;-145.69;58.53
1726;BME280;41776;48.260;8.928;2023-05-21T12:06:41;52080.00;;;-145.69;56.85
1726;BME280;41776;48.260;8.928;2023-05-21T12:09:08;52087.94;;;-145.69;58.17
1726;BME280;41776;48.260;8.928;2023-05-21T12:11:36;52070.09;;;-145.69;55.20
1726;BME280;41776;48.260;8.928;2023-05-21T12:14:06;52030.50;;;-145.69;51.74
1726;BME280;41776;48.260;8.928;2023-05-21T12:16:32;52076.03;;;-145.69;53.22
1726;BME280;41776;48.260;8.928;2023-05-21T12:18:59;52056.25;;;-145.69;54.95
1726;BME280;41776;48.260;8.928;2023-05-21T12:21:27;52068.13;;;-145.69;51.70
1726;BME280;41776;48.260;8.928;2023-05-21T12:23:54;52078.03;;;-145.69;51.24
1726;BME280;41776;48.260;8.928;2023-05-21T12:26:21;52026.53;;;-145.69;50.35
1726;BME280;41776;48.260;8.928;2023-05-21T12:28:49;52038.44;;;-145.69;50.34
1726;BME280;41776;48.260;8.928;2023-05-21T12:31:17;52038.44;;;-145.69;52.99
1726;BME280;41776;48.260;8.928;2023-05-21T12:33:43;52056.25;;;-145.69;52.64
1726;BME280;41776;48.260;8.928;2023-05-21T12:36:20;52038.44;;;-145.69;53.55
1726;BME280;41776;48.260;8.928;2023-05-21T12:38:48;52068.13;;;-145.69;52.48
1726;BME280;41776;48.260;8.928;2023-05-21T12:41:16;52076.03;;;-145.69;53.44
1726;BME280;41776;48.260;8.928;2023-05-21T12:43:43;52070.09;;;-145.69;56.75
1726;BME280;41776;48.260;8.928;2023-05-21T12:46:09;52076.03;;;-145.69;55.43
1726;BME280;41776;48.260;8.928;2023-05-21T12:48:38;52093.88;;;-145.69;56.22
1726;BME280;41776;48.260;8.928;2023-05-21T12:51:05;52060.22;;;-145.69;58.06